createdAt,value
2022-10-25T00:01:33.445Z,13.90
2022-10-25T00:04:49.610Z,13.94
2022-10-25T00:08:05.731Z,13.91
2022-10-25T00:11:27.202Z,13.94
2022-10-25T00:14:43.315Z,13.96
2022-10-25T00:17:59.956Z,13.95
2022-10-25T00:21:16.514Z,13.99
2022-10-25T00:24:33.123Z,13.99
2022-10-25T00:27:49.413Z,14.03
2022-10-25T00:31:12.198Z,14.03
2022-10-25T00:34:32.183Z,14.03
2022-10-25T00:37:48.219Z,14.06
2022-10-25T00:41:04.272Z,14.06
2022-10-25T00:44:56.923Z,14.05
2022-10-25T00:48:16.282Z,14.05
2022-10-25T00:51:36.690Z,14.01
2022-10-25T00:54:57.799Z,13.95
2022-10-25T00:58:18.470Z,13.93
2022-10-25T01:01:35.239Z,13.96
2022-10-25T01:04:52.500Z,13.97
2022-10-25T01:08:09.267Z,13.97
2022-10-25T01:11:26.297Z,14.00
2022-10-25T01:14:46.704Z,14.00
2022-10-25T01:18:07.816Z,14.03
2022-10-25T01:21:49.316Z,14.00
2022-10-25T01:25:39.963Z,14.01
2022-10-25T01:29:21.232Z,14.03
2022-10-25T01:33:03.862Z,14.02
2022-10-25T01:42:57.869Z,13.96
2022-10-25T01:46:21.051Z,13.97
2022-10-25T01:49:46.431Z,13.98
2022-10-25T01:56:21.408Z,13.98
2022-10-25T02:00:02.081Z,13.98
2022-10-25T02:03:30.620Z,13.96
2022-10-25T02:10:09.619Z,13.94
2022-10-25T02:13:32.066Z,13.92
2022-10-25T02:16:52.394Z,13.89
2022-10-25T02:20:12.868Z,13.88
2022-10-25T02:26:47.097Z,13.86
2022-10-25T02:30:07.913Z,13.87
2022-10-25T02:33:24.069Z,13.87
2022-10-25T02:36:40.209Z,13.84
2022-10-25T02:39:56.828Z,13.84
2022-10-25T02:43:12.977Z,13.84
2022-10-25T02:46:31.288Z,13.84
2022-10-25T02:49:47.604Z,13.84
2022-10-25T02:53:03.836Z,13.88
2022-10-25T02:56:25.361Z,13.89
2022-10-25T02:59:41.634Z,13.92
2022-10-25T03:02:57.686Z,13.94
2022-10-25T03:06:15.482Z,13.97
2022-10-25T03:09:32.708Z,13.99
2022-10-25T03:12:49.094Z,14.01
2022-10-25T03:16:05.713Z,13.99
2022-10-25T03:19:22.196Z,13.94
2022-10-25T03:22:38.220Z,13.89
2022-10-25T03:25:54.560Z,13.87
2022-10-25T03:29:11.692Z,13.88
2022-10-25T03:32:27.960Z,13.88
2022-10-25T03:35:44.068Z,13.88
2022-10-25T03:39:00.269Z,13.86
2022-10-25T03:42:16.555Z,13.86
2022-10-25T03:45:33.063Z,13.88
2022-10-25T03:48:49.465Z,13.90
2022-10-25T03:55:21.291Z,13.94
2022-10-25T03:58:37.606Z,13.95
2022-10-25T04:01:53.771Z,13.95
2022-10-25T04:05:10.572Z,13.97
2022-10-25T04:08:26.590Z,13.96
2022-10-25T04:11:42.976Z,13.92
2022-10-25T04:14:58.946Z,13.95
2022-10-25T04:18:15.870Z,13.90
2022-10-25T04:21:32.581Z,13.91
2022-10-25T04:28:05.898Z,13.87
2022-10-25T04:31:20.036Z,13.88
2022-10-25T04:34:35.817Z,13.86
2022-10-25T04:37:52.776Z,13.86
2022-10-25T04:41:09.718Z,13.86
2022-10-25T04:44:25.961Z,13.87
2022-10-25T04:47:42.519Z,13.86
2022-10-25T04:50:58.670Z,13.86
2022-10-25T04:54:15.115Z,13.85
2022-10-25T04:57:31.953Z,13.81
2022-10-25T05:00:48.355Z,13.82
2022-10-25T05:04:05.319Z,13.79
2022-10-25T05:07:22.233Z,13.76
2022-10-25T05:10:38.397Z,13.73
2022-10-25T05:13:54.870Z,13.68
2022-10-25T05:17:11.155Z,13.65
2022-10-25T05:20:27.404Z,13.67
2022-10-25T05:23:44.322Z,13.66
2022-10-25T05:27:00.622Z,13.63
2022-10-25T05:30:19.431Z,13.59
2022-10-25T05:33:35.622Z,13.58
2022-10-25T05:36:53.821Z,13.56
2022-10-25T05:43:25.208Z,13.49
2022-10-25T05:46:41.501Z,13.41
2022-10-25T05:50:03.310Z,13.32
2022-10-25T05:53:19.399Z,13.27
2022-10-25T05:56:38.384Z,13.24
2022-10-25T05:59:57.283Z,13.23
2022-10-25T06:03:14.443Z,13.22
2022-10-25T06:06:32.124Z,13.21
2022-10-25T06:09:48.329Z,13.23
2022-10-25T06:13:05.112Z,13.35
2022-10-25T06:16:24.651Z,13.53
2022-10-25T06:19:41.190Z,13.74
2022-10-25T06:23:00.128Z,13.89
2022-10-25T06:26:18.819Z,13.90
2022-10-25T06:29:37.833Z,13.90
2022-10-25T06:32:53.974Z,13.93
2022-10-25T06:36:14.200Z,13.93
2022-10-25T06:39:30.354Z,13.94
2022-10-25T06:42:46.733Z,13.92
2022-10-25T06:46:03.697Z,13.88
2022-10-25T06:49:20.700Z,13.87
2022-10-25T06:58:07.480Z,14.59
2022-10-25T07:01:25.805Z,15.49
2022-10-25T07:04:39.687Z,15.45
2022-10-25T07:11:12.281Z,15.38
2022-10-25T07:14:30.041Z,15.39
2022-10-25T07:17:46.678Z,15.39
2022-10-25T07:21:08.244Z,15.27
2022-10-25T07:27:42.645Z,15.09
2022-10-25T07:30:59.832Z,14.98
2022-10-25T07:34:21.025Z,14.90
2022-10-25T07:42:29.244Z,15.02
2022-10-25T07:45:46.379Z,15.17
2022-10-25T07:49:02.456Z,15.24
2022-10-25T07:52:18.553Z,15.26
2022-10-25T07:58:50.308Z,15.14
2022-10-25T08:02:06.432Z,15.19
2022-10-25T08:05:23.652Z,15.31
2022-10-25T08:08:41.880Z,15.53
2022-10-25T08:12:05.432Z,15.92
2022-10-25T08:15:28.102Z,16.33
2022-10-25T08:18:46.991Z,16.58
2022-10-25T08:22:04.058Z,16.69
2022-10-25T08:25:26.153Z,16.83
2022-10-25T08:28:43.109Z,16.90
2022-10-25T08:32:13.855Z,16.94
2022-10-25T08:35:31.897Z,16.96
2022-10-25T08:42:06.207Z,17.13
2022-10-25T08:45:27.568Z,17.25
2022-10-25T08:52:38.392Z,17.53
2022-10-25T08:59:12.890Z,17.76
2022-10-25T09:02:37.319Z,17.86
2022-10-25T09:05:58.549Z,18.00
2022-10-25T09:12:34.830Z,18.11
2022-10-25T09:16:02.584Z,18.15
2022-10-25T09:19:24.958Z,17.98
2022-10-25T09:22:48.172Z,17.87
2022-10-25T09:29:29.554Z,17.67
2022-10-25T09:32:50.753Z,17.64
2022-10-25T09:36:08.086Z,17.32
2022-10-25T09:39:32.876Z,17.36
2022-10-25T09:42:58.764Z,17.57
2022-10-25T09:46:20.686Z,17.65
2022-10-25T09:49:43.088Z,17.56
2022-10-25T09:57:59.489Z,17.32
2022-10-25T10:01:20.920Z,17.03
2022-10-25T10:04:42.182Z,16.91
2022-10-25T10:07:59.205Z,16.87
2022-10-25T10:11:20.179Z,16.78
2022-10-25T10:14:44.005Z,16.79
2022-10-25T10:18:33.540Z,16.75
2022-10-25T10:21:54.543Z,16.78
2022-10-25T10:25:12.336Z,16.76
2022-10-25T23:18:49.558Z,11.66
2022-10-25T23:22:06.352Z,11.59
2022-10-25T23:25:22.315Z,11.53
2022-10-25T23:28:40.265Z,11.52
2022-10-25T23:31:56.234Z,11.47
2022-10-25T23:35:13.172Z,11.48
2022-10-25T23:38:29.341Z,11.48
2022-10-25T23:41:45.825Z,11.48
2022-10-25T23:45:03.613Z,11.56
2022-10-25T23:48:19.631Z,11.62
2022-10-25T23:51:35.764Z,11.63
2022-10-25T23:54:51.647Z,11.59
2022-10-25T23:58:08.267Z,11.55
